createdAt,value
2018-03-23T00:02:03.436Z,69.08
2018-03-23T00:04:32.551Z,69.34
2018-03-23T00:07:00.877Z,69.80
2018-03-23T00:09:29.317Z,69.24
2018-03-23T00:11:57.862Z,69.21
2018-03-23T00:14:26.317Z,69.32
2018-03-23T00:16:54.646Z,70.02
2018-03-23T00:19:23.004Z,69.91
2018-03-23T00:21:51.314Z,69.94
2018-03-23T00:24:19.617Z,70.80
2018-03-23T00:26:47.955Z,70.38
2018-03-23T00:29:17.086Z,70.18
2018-03-23T00:31:45.462Z,70.33
2018-03-23T00:34:14.293Z,70.10
2018-03-23T00:36:42.660Z,69.87
2018-03-23T00:39:11.004Z,69.71
2018-03-23T00:41:39.349Z,69.57
2018-03-23T00:44:07.677Z,69.82
2018-03-23T00:46:36.009Z,69.45
2018-03-23T00:49:05.102Z,69.64
2018-03-23T00:51:34.205Z,70.56
2018-03-23T00:54:03.293Z,71.53
2018-03-23T00:56:32.692Z,71.29
2018-03-23T00:59:01.026Z,71.25
2018-03-23T01:01:29.370Z,70.95
2018-03-23T01:03:58.035Z,70.66
2018-03-23T01:06:27.524Z,70.61
2018-03-23T01:08:55.837Z,70.33
2018-03-23T01:11:25.096Z,69.85
2018-03-23T01:13:53.876Z,69.57
2018-03-23T01:16:22.295Z,68.94
2018-03-23T01:18:51.885Z,69.25
2018-03-23T01:21:20.276Z,69.35
2018-03-23T01:23:48.613Z,69.47
2018-03-23T01:26:16.953Z,68.93
2018-03-23T01:28:45.281Z,69.24
2018-03-23T01:31:13.624Z,69.59
2018-03-23T01:33:42.030Z,69.80
2018-03-23T01:36:10.380Z,69.46
2018-03-23T01:38:38.705Z,69.55
2018-03-23T01:41:07.253Z,69.51
2018-03-23T01:43:35.561Z,69.66
2018-03-23T01:46:03.888Z,69.90
2018-03-23T01:48:32.258Z,70.22
2018-03-23T01:51:01.355Z,69.93
2018-03-23T01:53:43.413Z,70.25
2018-03-23T01:56:11.772Z,69.83
2018-03-23T01:58:40.856Z,69.92
2018-03-23T02:01:09.433Z,70.02
2018-03-23T02:03:37.775Z,70.91
2018-03-23T02:06:06.877Z,70.92
2018-03-23T02:08:35.468Z,71.16
2018-03-23T02:11:04.568Z,71.85
2018-03-23T02:13:32.983Z,72.58
2018-03-23T02:16:01.302Z,72.22
2018-03-23T02:18:30.392Z,72.22
2018-03-23T02:20:58.722Z,72.41
2018-03-23T02:23:27.469Z,72.64
2018-03-23T02:25:55.775Z,72.71
2018-03-23T02:28:24.114Z,73.38
2018-03-23T02:30:52.472Z,73.22
2018-03-23T02:33:20.819Z,72.90
2018-03-23T02:35:49.150Z,72.70
2018-03-23T02:38:17.503Z,71.84
2018-03-23T02:40:45.815Z,72.89
2018-03-23T02:43:14.164Z,73.21
2018-03-23T02:45:42.705Z,72.54
2018-03-23T02:48:11.013Z,72.95
2018-03-23T02:50:39.347Z,72.80
2018-03-23T02:53:08.492Z,71.52
2018-03-23T02:55:36.832Z,70.65
2018-03-23T02:58:05.893Z,70.69
2018-03-23T03:00:34.256Z,70.54
2018-03-23T03:03:02.572Z,70.49
2018-03-23T03:05:30.944Z,70.14
2018-03-23T03:08:00.236Z,70.26
2018-03-23T03:10:29.033Z,69.72
2018-03-23T03:12:57.572Z,70.09
2018-03-23T03:15:25.945Z,70.01
2018-03-23T03:17:54.266Z,69.86
2018-03-23T03:20:22.597Z,68.73
2018-03-23T03:22:50.988Z,69.30
2018-03-23T03:25:19.326Z,68.95
2018-03-23T03:27:47.659Z,68.76
2018-03-23T03:30:16.537Z,68.04
2018-03-23T03:32:45.640Z,67.24
2018-03-23T03:35:13.960Z,67.18
2018-03-23T03:37:43.085Z,66.84
2018-03-23T03:40:11.402Z,67.75
2018-03-23T03:42:39.708Z,67.77
2018-03-23T03:45:08.055Z,68.01
2018-03-23T03:47:36.368Z,67.95
2018-03-23T03:50:05.519Z,67.80
2018-03-23T03:52:34.245Z,68.83
2018-03-23T03:55:02.578Z,69.61
2018-03-23T03:57:30.902Z,69.55
2018-03-23T03:59:59.270Z,69.72
2018-03-23T04:02:27.591Z,69.51
2018-03-23T04:04:55.908Z,69.21
2018-03-23T04:07:24.244Z,70.09
2018-03-23T04:09:52.551Z,69.83
2018-03-23T04:12:20.922Z,69.48
2018-03-23T04:14:49.763Z,69.55
2018-03-23T04:17:18.068Z,69.99
2018-03-23T04:19:46.385Z,70.23
2018-03-23T04:22:14.748Z,71.52
2018-03-23T04:24:43.066Z,72.25
2018-03-23T04:27:11.381Z,71.71
2018-03-23T04:29:39.752Z,72.21
2018-03-23T04:32:08.092Z,72.77
2018-03-23T04:34:36.433Z,73.11
2018-03-23T04:37:04.908Z,72.56
2018-03-23T04:39:33.263Z,72.73
2018-03-23T04:42:02.382Z,72.59
2018-03-23T04:44:30.735Z,73.20
2018-03-23T04:46:59.836Z,73.48
2018-03-23T04:49:28.143Z,73.32
2018-03-23T04:51:56.501Z,73.41
2018-03-23T04:54:25.581Z,73.43
2018-03-23T04:56:53.882Z,73.18
2018-03-23T04:59:22.636Z,72.97
2018-03-23T05:01:50.995Z,73.10
2018-03-23T05:04:19.360Z,72.79
2018-03-23T05:06:47.737Z,73.31
2018-03-23T05:09:16.814Z,74.11
2018-03-23T05:11:45.558Z,73.87
2018-03-23T05:14:13.881Z,73.79
2018-03-23T05:16:42.212Z,72.99
2018-03-23T05:19:10.537Z,73.12
2018-03-23T05:21:38.955Z,73.51
2018-03-23T05:24:07.280Z,73.92
2018-03-23T05:26:35.628Z,74.14
2018-03-23T05:29:03.988Z,74.21
2018-03-23T05:31:32.594Z,74.94
2018-03-23T05:34:00.927Z,75.16
2018-03-23T05:36:29.296Z,75.04
2018-03-23T05:38:57.617Z,74.20
2018-03-23T05:41:25.942Z,74.54
2018-03-23T05:43:54.349Z,75.10
2018-03-23T05:46:22.708Z,74.15
2018-03-23T05:48:51.032Z,72.89
2018-03-23T05:51:19.384Z,73.05
2018-03-23T05:53:47.696Z,71.93
2018-03-23T05:56:16.037Z,72.33
2018-03-23T05:58:44.659Z,71.81
2018-03-23T06:01:13.020Z,72.02
2018-03-23T06:03:41.326Z,71.90
2018-03-23T06:06:10.040Z,73.18
2018-03-23T06:08:38.373Z,71.87
2018-03-23T06:11:06.686Z,71.34
2018-03-23T06:13:36.025Z,71.22
2018-03-23T06:16:04.365Z,71.10
2018-03-23T06:18:33.456Z,70.89
2018-03-23T06:21:02.561Z,70.65
2018-03-23T06:23:30.898Z,70.15
2018-03-23T06:25:59.308Z,70.02
2018-03-23T06:28:27.836Z,70.47
2018-03-23T06:30:56.188Z,69.91
2018-03-23T06:33:24.536Z,70.21
2018-03-23T06:35:52.923Z,70.08
2018-03-23T06:38:22.071Z,69.90
2018-03-23T06:40:50.424Z,70.54
2018-03-23T06:43:18.800Z,70.87
2018-03-23T06:45:47.135Z,70.56
2018-03-23T06:48:15.470Z,69.16
2018-03-23T06:50:44.104Z,68.62
2018-03-23T06:53:12.441Z,67.35
2018-03-23T06:55:40.825Z,66.92
2018-03-23T06:58:09.198Z,66.45
2018-03-23T07:00:37.531Z,67.08
2018-03-23T07:03:05.862Z,66.35
2018-03-23T07:05:34.287Z,66.26
2018-03-23T07:08:03.387Z,65.67
2018-03-23T07:10:31.715Z,65.60
2018-03-23T07:13:00.311Z,64.53
2018-03-23T07:15:29.038Z,63.85
2018-03-23T07:17:58.105Z,62.88
2018-03-23T07:20:26.426Z,62.23
2018-03-23T07:22:55.503Z,63.48
2018-03-23T07:25:23.807Z,63.31
2018-03-23T07:27:52.162Z,62.74
2018-03-23T07:30:20.460Z,62.25
2018-03-23T07:32:48.828Z,62.28
2018-03-23T07:35:18.209Z,61.59
2018-03-23T07:37:46.561Z,60.84
2018-03-23T07:40:14.879Z,60.35
2018-03-23T07:42:43.240Z,60.46
2018-03-23T07:45:11.591Z,61.27
2018-03-23T07:47:39.956Z,60.86
2018-03-23T07:50:08.320Z,59.98
2018-03-23T07:52:37.440Z,58.09
2018-03-23T07:55:05.763Z,57.58
2018-03-23T07:57:34.270Z,55.56
2018-03-23T08:00:03.353Z,54.23
2018-03-23T08:02:31.697Z,54.27
2018-03-23T08:05:00.059Z,54.38
2018-03-23T08:07:28.393Z,54.58
2018-03-23T08:09:57.494Z,56.45
2018-03-23T08:12:26.583Z,56.51
2018-03-23T08:14:55.760Z,55.98
2018-03-23T08:17:24.117Z,56.45
2018-03-23T08:19:52.868Z,55.67
2018-03-23T08:22:21.939Z,56.46
2018-03-23T08:24:50.325Z,56.77
2018-03-23T08:27:18.709Z,57.40
2018-03-23T08:29:47.815Z,57.45
2018-03-23T08:32:16.896Z,56.82
2018-03-23T08:34:45.995Z,56.93
2018-03-23T08:37:15.083Z,57.39
2018-03-23T08:39:44.154Z,57.97
2018-03-23T08:42:12.546Z,58.04
2018-03-23T08:44:40.896Z,58.77
2018-03-23T08:47:09.209Z,59.65
2018-03-23T08:49:37.566Z,60.56
2018-03-23T08:52:05.887Z,59.65
2018-03-23T08:54:34.984Z,59.58
2018-03-23T08:57:04.129Z,59.87
2018-03-23T08:59:32.465Z,59.33
2018-03-23T09:02:02.317Z,60.12
2018-03-23T09:04:30.976Z,59.60
2018-03-23T09:06:59.342Z,58.97
2018-03-23T09:09:28.425Z,58.58
2018-03-23T09:11:57.539Z,59.23
2018-03-23T09:14:25.836Z,58.19
2018-03-23T09:16:54.184Z,60.36
2018-03-23T09:19:23.695Z,60.57
2018-03-23T09:21:52.062Z,59.75
2018-03-23T09:24:20.503Z,61.06
2018-03-23T09:26:49.146Z,62.14
2018-03-23T09:29:17.482Z,61.96
2018-03-23T09:31:45.809Z,62.46
2018-03-23T09:34:14.199Z,61.89
2018-03-23T09:36:42.559Z,61.48
2018-03-23T09:39:10.882Z,60.03
2018-03-23T09:41:39.205Z,60.78
2018-03-23T09:44:08.327Z,60.73
2018-03-23T09:46:37.453Z,61.15
2018-03-23T09:49:06.294Z,60.09
2018-03-23T09:51:34.618Z,60.61
2018-03-23T09:54:02.913Z,62.27
2018-03-23T09:56:31.369Z,62.35
2018-03-23T09:58:59.726Z,62.02
2018-03-23T10:01:28.070Z,62.12
2018-03-23T10:03:56.443Z,61.92
2018-03-23T10:06:24.765Z,61.25
2018-03-23T10:08:53.091Z,59.89
2018-03-23T10:11:21.818Z,60.06
2018-03-23T10:13:50.138Z,59.14
2018-03-23T10:16:18.461Z,58.12
2018-03-23T10:18:47.569Z,59.50
2018-03-23T10:21:15.882Z,60.80
2018-03-23T10:23:44.207Z,60.92
2018-03-23T10:26:12.660Z,60.53
2018-03-23T10:28:41.053Z,59.26
2018-03-23T10:31:09.393Z,59.03
2018-03-23T10:33:37.936Z,58.85
2018-03-23T10:36:07.082Z,57.20
2018-03-23T10:38:35.457Z,58.74
2018-03-23T10:41:03.839Z,58.28
2018-03-23T10:43:32.261Z,57.77
2018-03-23T10:46:00.597Z,57.56
2018-03-23T10:48:28.969Z,56.08
2018-03-23T10:50:57.346Z,54.04
2018-03-23T10:53:25.675Z,54.71
2018-03-23T10:55:55.322Z,56.47
2018-03-23T10:58:23.625Z,56.99
2018-03-23T11:00:57.401Z,57.75
2018-03-23T11:03:25.766Z,57.49
2018-03-23T11:05:54.888Z,57.52
2018-03-23T11:08:24.150Z,55.70
2018-03-23T11:10:53.297Z,53.86
2018-03-23T11:13:21.675Z,53.83
2018-03-23T11:15:50.151Z,53.83
2018-03-23T11:18:18.486Z,53.09
2018-03-23T11:20:46.838Z,51.67
2018-03-23T11:23:15.267Z,49.15
2018-03-23T11:25:43.701Z,46.86
2018-03-23T11:28:12.065Z,44.50
2018-03-23T11:30:40.448Z,43.61
2018-03-23T11:33:08.795Z,43.22
2018-03-23T11:35:37.195Z,45.05
2018-03-23T11:38:05.630Z,46.21
2018-03-23T11:40:33.956Z,48.29
2018-03-23T11:43:02.309Z,50.72
2018-03-23T11:45:30.656Z,51.67
2018-03-23T11:47:59.002Z,51.46
2018-03-23T11:50:27.320Z,51.04
2018-03-23T11:52:56.429Z,51.27
2018-03-23T11:55:25.508Z,53.08
2018-03-23T11:57:54.628Z,53.13
2018-03-23T12:00:23.396Z,53.82
2018-03-23T12:02:51.718Z,53.67
2018-03-23T12:05:20.083Z,52.83
2018-03-23T12:07:48.441Z,53.70
2018-03-23T12:10:16.833Z,54.24
2018-03-23T12:12:45.175Z,53.23
2018-03-23T12:15:13.559Z,52.59
2018-03-23T12:17:42.665Z,52.20
2018-03-23T12:20:11.761Z,52.52
2018-03-23T12:22:41.378Z,52.93
2018-03-23T12:25:09.741Z,52.97
2018-03-23T12:27:38.100Z,53.75
2018-03-23T12:30:06.445Z,53.22
2018-03-23T12:32:34.884Z,53.11
2018-03-23T12:35:03.237Z,53.24
2018-03-23T12:37:31.865Z,54.76
2018-03-23T12:40:00.224Z,54.64
2018-03-23T12:42:28.559Z,53.14
2018-03-23T12:44:57.316Z,51.47
2018-03-23T12:47:25.655Z,52.06
2018-03-23T12:49:53.988Z,52.46
2018-03-23T12:52:22.404Z,51.89
2018-03-23T12:54:50.748Z,51.74
2018-03-23T12:57:19.073Z,50.87
2018-03-23T12:59:48.210Z,52.68
2018-03-23T13:02:16.540Z,52.37
2018-03-23T13:04:44.888Z,50.34
2018-03-23T13:07:13.637Z,50.16
2018-03-23T13:09:41.954Z,49.25
2018-03-23T13:12:10.302Z,48.74
2018-03-23T13:14:39.433Z,47.56
2018-03-23T13:17:07.832Z,42.93
2018-03-23T13:19:36.261Z,37.53
2018-03-23T13:22:04.643Z,32.60
2018-03-23T13:24:32.978Z,33.00
2018-03-23T13:27:01.337Z,30.82
2018-03-23T13:29:30.542Z,29.99
2018-03-23T13:31:58.914Z,29.95
2018-03-23T13:34:27.287Z,33.49
2018-03-23T13:36:55.709Z,36.38
2018-03-23T13:39:24.015Z,38.09
2018-03-23T13:41:52.432Z,40.21
2018-03-23T13:44:20.802Z,42.18
2018-03-23T13:46:49.144Z,41.92
2018-03-23T13:49:17.497Z,42.61
2018-03-23T13:51:46.255Z,45.92
2018-03-23T13:54:14.574Z,48.38
2018-03-23T13:56:42.950Z,47.77
2018-03-23T13:59:16.706Z,46.34
2018-03-23T14:01:45.099Z,47.04
2018-03-23T14:04:13.492Z,47.56
2018-03-23T14:06:41.891Z,49.24
2018-03-23T14:09:10.229Z,47.35
2018-03-23T14:11:38.640Z,45.79
2018-03-23T14:14:07.196Z,43.92
2018-03-23T14:16:35.575Z,43.62
2018-03-23T14:19:03.920Z,43.39
2018-03-23T14:21:33.069Z,45.51
2018-03-23T14:24:01.420Z,45.18
2018-03-23T14:26:29.751Z,45.49
2018-03-23T14:28:58.117Z,46.39
2018-03-23T14:31:26.440Z,46.74
2018-03-23T14:33:54.786Z,47.96
2018-03-23T14:36:23.308Z,50.48
2018-03-23T14:38:51.622Z,50.61
2018-03-23T14:41:19.981Z,52.00
2018-03-23T14:43:48.341Z,54.64
2018-03-23T14:46:16.754Z,54.54
2018-03-23T14:48:45.109Z,54.67
2018-03-23T14:51:13.466Z,55.67
2018-03-23T14:53:42.584Z,54.39
2018-03-23T14:56:10.906Z,55.16
2018-03-23T14:58:44.786Z,55.22
2018-03-23T15:01:13.086Z,55.25
2018-03-23T15:03:41.400Z,54.40
2018-03-23T15:06:10.531Z,54.65
2018-03-23T15:08:38.886Z,55.43
2018-03-23T15:11:08.105Z,55.07
2018-03-23T15:13:36.468Z,56.61
2018-03-23T15:16:04.807Z,56.22
2018-03-23T15:18:33.144Z,55.35
2018-03-23T15:21:01.898Z,54.81
2018-03-23T15:23:30.314Z,55.06
2018-03-23T15:25:58.635Z,55.95
2018-03-23T15:28:27.002Z,57.82
2018-03-23T15:30:55.349Z,57.43
2018-03-23T15:33:23.781Z,56.92
2018-03-23T15:35:52.921Z,57.43
2018-03-23T15:38:21.293Z,58.11
2018-03-23T15:40:49.603Z,57.62
2018-03-23T15:43:18.099Z,57.04
2018-03-23T15:45:46.447Z,56.61
2018-03-23T15:48:14.815Z,56.96
2018-03-23T15:50:43.149Z,58.87
2018-03-23T15:53:12.279Z,58.94
2018-03-23T15:55:40.600Z,58.54
2018-03-23T15:58:08.942Z,57.88
2018-03-23T16:00:37.255Z,57.67
2018-03-23T16:03:05.553Z,57.45
2018-03-23T16:05:33.972Z,58.15
2018-03-23T16:08:02.306Z,57.81
2018-03-23T16:10:30.640Z,58.24
2018-03-23T16:12:59.056Z,58.35
2018-03-23T16:15:27.440Z,58.42
2018-03-23T16:17:55.802Z,58.98
2018-03-23T16:20:24.137Z,59.29
2018-03-23T16:22:52.468Z,58.89
2018-03-23T16:25:20.820Z,58.76
2018-03-23T16:27:49.346Z,59.26
2018-03-23T16:30:17.660Z,59.53
2018-03-23T16:32:45.988Z,60.79
2018-03-23T16:35:14.331Z,60.19
2018-03-23T16:37:42.674Z,59.92
2018-03-23T16:40:11.819Z,59.63
2018-03-23T16:42:40.193Z,59.85
2018-03-23T16:45:08.552Z,60.21
2018-03-23T16:47:36.881Z,60.68
2018-03-23T16:50:05.505Z,59.69
2018-03-23T16:52:34.666Z,59.74
2018-03-23T16:55:02.981Z,59.55
2018-03-23T16:57:32.075Z,59.60
2018-03-23T17:00:00.456Z,60.34
2018-03-23T17:02:29.556Z,59.92
2018-03-23T17:04:58.704Z,59.31
2018-03-23T17:07:27.006Z,60.08
2018-03-23T17:09:55.370Z,60.65
2018-03-23T17:12:24.068Z,60.59
2018-03-23T17:14:52.444Z,60.92
2018-03-23T17:17:20.997Z,60.93
2018-03-23T17:19:49.353Z,61.01
2018-03-23T17:22:17.762Z,60.66
2018-03-23T17:24:46.168Z,59.96
2018-03-23T17:27:14.542Z,60.12
2018-03-23T17:29:42.894Z,60.30
2018-03-23T17:32:11.275Z,60.12
2018-03-23T17:34:39.744Z,61.21
2018-03-23T17:37:08.100Z,61.10
2018-03-23T17:39:36.438Z,60.98
2018-03-23T17:42:04.805Z,61.99
2018-03-23T17:44:33.233Z,61.50
2018-03-23T17:47:01.574Z,63.16
2018-03-23T17:49:30.577Z,62.54
2018-03-23T17:51:58.927Z,62.50
2018-03-23T17:54:27.250Z,61.90
2018-03-23T17:56:56.602Z,62.99
2018-03-23T17:59:24.945Z,63.87
2018-03-23T18:01:53.268Z,64.24
2018-03-23T18:04:21.637Z,65.12
2018-03-23T18:06:49.959Z,64.77
2018-03-23T18:09:18.294Z,63.57
2018-03-23T18:11:47.442Z,63.82
2018-03-23T18:14:15.767Z,63.50
2018-03-23T18:16:44.125Z,62.89
2018-03-23T18:19:13.220Z,62.00
2018-03-23T18:21:41.547Z,62.71
2018-03-23T18:24:09.992Z,63.22
2018-03-23T18:26:38.381Z,62.75
2018-03-23T18:29:06.765Z,62.39
2018-03-23T18:31:35.117Z,62.22
2018-03-23T18:34:03.465Z,62.32
2018-03-23T18:36:31.814Z,62.26
2018-03-23T18:39:00.209Z,61.67
2018-03-23T18:41:28.936Z,62.13
2018-03-23T18:43:57.246Z,62.35
2018-03-23T18:46:25.585Z,62.58
2018-03-23T18:48:54.716Z,62.75
2018-03-23T18:51:23.476Z,62.42
2018-03-23T18:53:51.811Z,62.44
2018-03-23T18:56:20.137Z,62.54
2018-03-23T18:58:48.509Z,62.77
2018-03-23T19:01:16.885Z,63.38
2018-03-23T19:03:45.358Z,63.98
2018-03-23T19:06:14.474Z,64.03
2018-03-23T19:08:42.789Z,65.41
2018-03-23T19:11:11.122Z,64.76
2018-03-23T19:13:40.214Z,64.82
2018-03-23T19:16:09.308Z,64.59
2018-03-23T19:18:37.653Z,66.25
2018-03-23T19:21:06.361Z,65.48
2018-03-23T19:23:34.699Z,65.80
2018-03-23T19:26:03.420Z,65.57
2018-03-23T19:28:31.797Z,66.18
2018-03-23T19:31:00.114Z,65.59
2018-03-23T19:33:28.484Z,65.91
2018-03-23T19:35:56.867Z,65.83
2018-03-23T19:38:25.231Z,65.88
2018-03-23T19:40:53.616Z,65.75
2018-03-23T19:43:22.726Z,65.44
2018-03-23T19:45:51.068Z,66.17
2018-03-23T19:48:19.808Z,66.58
2018-03-23T19:50:48.201Z,66.52
2018-03-23T19:53:16.549Z,66.10
2018-03-23T19:55:44.951Z,65.15
2018-03-23T19:58:13.304Z,64.92
2018-03-23T20:00:41.638Z,65.91
2018-03-23T20:03:09.981Z,67.18
2018-03-23T20:05:38.319Z,66.21
2018-03-23T20:08:07.426Z,66.49
2018-03-23T20:10:36.687Z,66.82
2018-03-23T20:13:05.001Z,66.03
2018-03-23T20:15:34.116Z,65.72
2018-03-23T20:18:07.873Z,66.25
2018-03-23T20:20:41.629Z,66.73
2018-03-23T20:23:09.997Z,66.39
2018-03-23T20:25:38.505Z,66.93
2018-03-23T20:28:12.801Z,66.21
2018-03-23T20:30:41.131Z,66.04
2018-03-23T20:33:09.503Z,66.87
2018-03-23T20:35:37.882Z,65.49
2018-03-23T20:38:06.235Z,65.07
2018-03-23T20:40:35.539Z,65.08
2018-03-23T20:43:03.943Z,65.39
2018-03-23T20:45:32.319Z,65.60
2018-03-23T20:48:00.700Z,64.96
2018-03-23T20:50:29.152Z,65.49
2018-03-23T20:52:57.491Z,65.68
2018-03-23T20:55:25.835Z,65.06
2018-03-23T20:57:54.237Z,65.14
2018-03-23T21:00:22.591Z,65.24
2018-03-23T21:02:50.947Z,65.16
2018-03-23T21:05:19.290Z,65.30
2018-03-23T21:07:47.616Z,64.67
2018-03-23T21:10:15.958Z,65.23
2018-03-23T21:12:45.149Z,65.46
2018-03-23T21:15:13.466Z,65.03
2018-03-23T21:17:41.781Z,65.51
2018-03-23T21:20:10.160Z,65.39
2018-03-23T21:22:38.479Z,65.35
2018-03-23T21:25:06.825Z,64.96
2018-03-23T21:27:35.995Z,64.94
2018-03-23T21:30:04.348Z,65.08
2018-03-23T21:32:32.677Z,65.63
2018-03-23T21:35:01.694Z,65.45
2018-03-23T21:37:30.044Z,65.91
2018-03-23T21:39:58.440Z,65.99
2018-03-23T21:42:26.807Z,65.98
2018-03-23T21:44:55.176Z,65.72
2018-03-23T21:47:23.508Z,65.51
2018-03-23T21:49:51.939Z,65.64
2018-03-23T21:52:20.249Z,65.56
2018-03-23T21:54:49.325Z,65.99
2018-03-23T21:57:17.999Z,65.35
2018-03-23T21:59:46.336Z,65.36
2018-03-23T22:02:14.730Z,66.08
2018-03-23T22:04:43.141Z,65.81
2018-03-23T22:07:11.453Z,65.35
2018-03-23T22:09:40.512Z,65.43
2018-03-23T22:12:08.870Z,65.12
2018-03-23T22:14:37.262Z,64.99
2018-03-23T22:17:05.649Z,65.45
2018-03-23T22:19:34.210Z,65.92
2018-03-23T22:22:02.538Z,66.35
2018-03-23T22:24:31.676Z,66.35
2018-03-23T22:27:00.015Z,66.04
2018-03-23T22:29:28.355Z,66.33
2018-03-23T22:31:56.763Z,66.50
2018-03-23T22:34:25.090Z,66.21
2018-03-23T22:36:53.394Z,66.41
2018-03-23T22:39:21.747Z,66.85
2018-03-23T22:41:50.147Z,66.51
2018-03-23T22:44:18.576Z,65.54
2018-03-23T22:46:46.931Z,65.68
2018-03-23T22:49:16.078Z,65.80
2018-03-23T22:51:44.418Z,66.58
2018-03-23T22:54:12.754Z,65.67
2018-03-23T22:56:41.100Z,65.93
2018-03-23T22:59:09.477Z,65.33
2018-03-23T23:01:37.775Z,65.70
2018-03-23T23:04:06.213Z,65.35
2018-03-23T23:06:34.526Z,65.77
2018-03-23T23:09:02.834Z,66.00
2018-03-23T23:11:31.501Z,65.83
2018-03-23T23:13:59.932Z,65.58
2018-03-23T23:16:28.306Z,65.34
2018-03-23T23:18:57.435Z,66.88
2018-03-23T23:21:25.807Z,67.14
2018-03-23T23:23:54.113Z,66.48
2018-03-23T23:26:22.804Z,66.46
2018-03-23T23:28:51.178Z,66.87
2018-03-23T23:31:19.552Z,67.35
2018-03-23T23:33:48.003Z,67.29
2018-03-23T23:36:16.380Z,66.50
2018-03-23T23:38:45.484Z,66.78
2018-03-23T23:41:13.843Z,67.20
2018-03-23T23:43:42.956Z,67.02
2018-03-23T23:46:11.296Z,67.26
2018-03-23T23:48:39.726Z,66.50
2018-03-23T23:51:08.130Z,66.18
2018-03-23T23:53:36.489Z,66.39
2018-03-23T23:56:04.852Z,66.59
2018-03-23T23:58:34.385Z,66.32
